Date,TemperatureHighF,TemperatureAvgF,TemperatureLowF,DewpointHighF,DewpointAvgF,DewpointLowF,HumidityHigh,HumidityAvg,HumidityLow,PressureMaxIn,PressureMinIn,WindSpeedMaxMPH,WindSpeedAvgMPH,GustSpeedMaxMPH,PrecipitationSumIn
2013-2-1,6,-4,-16,-9,-18,-29,50,50,50,30.27,30.00,6,4,12,0.00
2013-2-2,9,5,0,-5,-9,-14,50,50,50,30.15,29.94,6,3,11,0.00
2013-2-3,14,9,0,-2,-6,-14,50,48,45,30.06,29.91,6,3,12,0.00
2013-2-4,16,8,-2,10,-10,-18,80,43,39,30.03,29.71,11,4,16,0.00
2013-2-5,32,18,0,24,5,-14,79,57,47,30.06,29.65,11,4,15,0.00
2013-2-6,30,16,-2,17,4,-16,75,58,51,30.06,29.85,9,4,13,0.00
2013-2-7,26,24,18,22,17,11,95,75,55,30.21,29.94,10,7,18,0.00
2013-2-8,25,22,14,17,10,0,72,61,49,30.33,30.15,10,5,16,0.00
2013-2-9,32,28,25,28,22,17,93,77,68,30.18,29.88,12,10,21,0.00
2013-2-10,33,31,28,33,29,22,100,93,80,29.88,29.26,12,3,17,0.00
2013-2-11,29,26,22,29,18,7,100,73,49,29.94,29.38,0,0,0,0.00
2013-2-12,33,22,14,14,10,3,77,60,43,30.03,29.79,10,2,15,0.00
2013-2-13,36,26,11,32,17,4,97,71,48,29.79,29.56,7,3,11,0.00
2013-2-14,33,27,12,32,17,-7,100,71,35,30.12,29.59,4,0,8,0.00
2013-2-15,21,8,-3,-1,-12,-21,44,40,35,30.30,30.18,4,1,9,0.00
2013-2-16,21,10,-2,2,-10,-21,47,41,38,30.24,30.06,6,2,10,0.00
2013-2-17,31,20,4,16,4,-14,66,50,43,30.06,29.59,15,9,20,0.00
2013-2-18,33,21,3,28,8,-12,81,57,44,29.82,29.50,9,6,17,0.00
2013-2-19,7,-1,-11,-8,-16,-26,48,48,48,30.36,29.82,7,4,15,0.00
2013-2-20,12,-1,-16,-4,-16,-30,48,48,48,30.41,30.33,6,3,9,0.00
2013-2-21,22,13,-2,2,-5,-16,48,45,38,30.39,30.03,8,5,14,0.00
2013-2-22,29,21,16,18,14,2,85,73,45,30.03,29.85,8,5,14,0.00
2013-2-23,24,16,2,16,7,-10,84,67,52,29.94,29.82,8,3,11,0.00
2013-2-24,34,15,-3,13,0,-14,65,53,40,30.06,29.94,3,0,5,0.00
2013-2-25,36,24,10,16,11,3,71,58,40,30.09,30.00,4,1,8,0.00
2013-2-26,33,21,6,23,11,-1,86,66,51,30.03,29.85,9,4,15,0.00
2013-2-27,40,29,19,18,14,8,69,54,36,30.03,29.85,8,4,15,0.00
2013-2-28,31,26,19,17,12,6,72,54,42,30.18,30.03,7,4,13,0.00